createdAt,value
2023-06-19T00:01:32.446Z,18.33
2023-06-19T00:03:59.035Z,13.68
2023-06-19T00:06:25.680Z,17.17
2023-06-19T00:08:52.228Z,13.80
2023-06-19T00:11:19.123Z,14.50
2023-06-19T00:13:45.746Z,18.80
2023-06-19T00:16:12.510Z,15.73
2023-06-19T00:18:41.234Z,17.58
2023-06-19T00:21:08.716Z,18.95
2023-06-19T00:23:35.534Z,20.08
2023-06-19T00:26:05.050Z,15.73
2023-06-19T00:28:31.883Z,14.43
2023-06-19T00:30:58.466Z,15.00
2023-06-19T00:33:25.333Z,23.52
2023-06-19T00:35:52.076Z,14.38
2023-06-19T00:38:18.863Z,14.95
2023-06-19T00:40:45.432Z,14.73
2023-06-19T00:43:11.952Z,15.00
2023-06-19T00:45:38.599Z,11.95
2023-06-19T00:48:05.295Z,16.15
2023-06-19T00:50:32.307Z,19.95
2023-06-19T00:52:59.441Z,17.13
2023-06-19T00:55:26.742Z,20.70
2023-06-19T00:57:54.333Z,15.60
2023-06-19T01:00:20.968Z,20.70
2023-06-19T01:02:48.317Z,17.45
2023-06-19T01:05:16.170Z,15.40
2023-06-19T01:07:48.208Z,14.27
2023-06-19T01:10:25.795Z,15.57
2023-06-19T01:13:03.794Z,14.90
2023-06-19T01:15:30.613Z,17.65
2023-06-19T01:17:58.680Z,16.92
2023-06-19T01:20:26.818Z,14.50
2023-06-19T01:22:57.992Z,17.08
2023-06-19T01:25:25.352Z,16.48
2023-06-19T01:27:52.062Z,17.55
2023-06-19T01:30:18.749Z,18.50
2023-06-19T01:32:45.359Z,15.98
2023-06-19T01:35:13.436Z,18.55
2023-06-19T01:37:41.282Z,18.35
2023-06-19T01:40:10.929Z,18.83
2023-06-19T01:42:40.912Z,20.13
2023-06-19T01:45:07.988Z,20.30
2023-06-19T01:47:34.733Z,22.65
2023-06-19T01:50:01.465Z,24.05
2023-06-19T01:52:28.060Z,17.08
2023-06-19T01:54:54.640Z,27.35
2023-06-19T01:57:21.204Z,18.00
2023-06-19T01:59:47.738Z,21.33
2023-06-19T02:02:14.260Z,20.80
2023-06-19T02:04:40.828Z,22.40
2023-06-19T02:07:07.459Z,25.33
2023-06-19T02:09:34.623Z,16.63
2023-06-19T02:12:01.174Z,16.60
2023-06-19T02:14:27.714Z,18.83
2023-06-19T02:16:54.237Z,20.88
2023-06-19T02:19:21.261Z,19.02
2023-06-19T02:21:47.832Z,18.40
2023-06-19T02:24:14.394Z,19.92
2023-06-19T02:26:40.967Z,20.05
2023-06-19T02:29:07.524Z,18.20
2023-06-19T02:31:34.103Z,19.00
2023-06-19T02:34:00.622Z,15.07
2023-06-19T02:36:27.248Z,16.35
2023-06-19T02:38:54.002Z,23.85
2023-06-19T02:41:20.567Z,18.25
2023-06-19T02:43:48.122Z,20.00
2023-06-19T02:46:14.712Z,19.50
2023-06-19T02:48:41.251Z,16.98
2023-06-19T02:51:07.872Z,22.92
2023-06-19T02:53:34.547Z,17.83
2023-06-19T02:56:01.105Z,20.73
2023-06-19T02:58:28.103Z,17.75
2023-06-19T03:00:54.671Z,17.80
2023-06-19T03:03:21.422Z,22.25
2023-06-19T03:05:48.064Z,15.00
2023-06-19T03:08:14.636Z,18.30
2023-06-19T03:10:41.178Z,17.75
2023-06-19T03:13:07.725Z,15.88
2023-06-19T03:15:34.308Z,20.05
2023-06-19T03:18:04.529Z,19.20
2023-06-19T03:20:31.223Z,24.17
2023-06-19T03:22:57.802Z,16.85
2023-06-19T03:25:24.317Z,19.08
2023-06-19T03:27:50.869Z,17.98
2023-06-19T03:30:19.739Z,17.23
2023-06-19T03:32:46.438Z,20.88
2023-06-19T03:35:13.188Z,18.05
2023-06-19T03:37:39.726Z,15.07
2023-06-19T03:40:06.784Z,20.58
2023-06-19T03:42:33.480Z,17.33
2023-06-19T03:45:00.010Z,16.15
2023-06-19T03:47:26.579Z,20.92
2023-06-19T03:49:54.779Z,13.85
2023-06-19T03:52:21.940Z,18.80
2023-06-19T03:54:48.631Z,18.45
2023-06-19T03:57:15.142Z,19.23
2023-06-19T03:59:41.683Z,20.40
2023-06-19T04:02:08.246Z,19.38
2023-06-19T04:04:34.823Z,20.52
2023-06-19T04:07:01.391Z,19.08
2023-06-19T04:09:28.170Z,20.52
2023-06-19T04:11:54.763Z,31.00
2023-06-19T04:14:24.112Z,17.33
2023-06-19T04:16:50.707Z,23.05
2023-06-19T04:19:17.441Z,18.00
2023-06-19T04:21:44.062Z,19.88
2023-06-19T04:24:10.682Z,24.38
2023-06-19T04:26:38.045Z,22.35
2023-06-19T04:29:04.724Z,16.05
2023-06-19T04:31:32.026Z,23.63
2023-06-19T04:33:58.549Z,21.17
2023-06-19T04:36:25.209Z,24.30
2023-06-19T04:38:54.415Z,25.85
2023-06-19T04:41:20.965Z,25.13
2023-06-19T04:43:47.495Z,19.40
2023-06-19T04:46:14.057Z,25.38
2023-06-19T04:48:41.537Z,21.63
2023-06-19T04:51:08.168Z,18.20
2023-06-19T04:53:34.698Z,21.63
2023-06-19T04:56:02.845Z,29.25
2023-06-19T04:58:29.623Z,18.92
2023-06-19T05:00:56.208Z,20.15
2023-06-19T05:03:23.333Z,22.58
2023-06-19T05:05:50.042Z,22.00
2023-06-19T05:08:18.296Z,19.38
2023-06-19T05:10:46.455Z,27.15
2023-06-19T05:13:13.368Z,22.88
2023-06-19T05:15:39.942Z,31.27
2023-06-19T05:18:06.585Z,28.55
2023-06-19T05:20:33.189Z,28.17
2023-06-19T05:22:59.831Z,28.38
2023-06-19T05:25:26.446Z,32.03
2023-06-19T05:27:52.978Z,34.67
2023-06-19T05:30:19.568Z,30.35
2023-06-19T05:32:46.263Z,35.58
2023-06-19T05:35:16.290Z,31.67
2023-06-19T05:37:44.925Z,33.47
2023-06-19T05:40:11.730Z,33.13
2023-06-19T05:42:38.348Z,28.42
2023-06-19T05:45:05.469Z,28.77
2023-06-19T05:47:32.295Z,37.70
2023-06-19T05:49:58.923Z,40.33
2023-06-19T05:52:25.678Z,31.27
2023-06-19T05:54:52.610Z,30.20
2023-06-19T05:57:22.146Z,35.15
2023-06-19T05:59:49.089Z,32.72
2023-06-19T06:02:16.383Z,32.67
2023-06-19T06:04:43.792Z,35.60
2023-06-19T06:07:10.471Z,28.67
2023-06-19T06:09:37.055Z,31.00
2023-06-19T06:12:03.937Z,27.40
2023-06-19T06:14:30.527Z,29.08
2023-06-19T06:16:57.092Z,33.35
2023-06-19T06:19:27.192Z,28.92
2023-06-19T06:21:53.769Z,25.15
2023-06-19T06:24:20.452Z,26.85
2023-06-19T06:26:47.059Z,24.50
2023-06-19T06:29:13.828Z,25.13
2023-06-19T06:31:42.717Z,23.67
2023-06-19T06:34:09.834Z,21.27
2023-06-19T06:36:38.889Z,18.55
2023-06-19T06:39:08.587Z,21.02
2023-06-19T06:41:35.122Z,17.48
2023-06-19T06:44:02.044Z,14.43
2023-06-19T06:46:28.655Z,17.15
2023-06-19T06:48:55.241Z,19.92
2023-06-19T06:51:23.321Z,14.27
2023-06-19T06:53:51.926Z,43.83
2023-06-19T06:56:18.508Z,13.07
2023-06-19T06:58:47.328Z,14.77
2023-06-19T07:01:13.954Z,15.02
2023-06-19T07:03:40.863Z,14.40
2023-06-19T07:06:07.492Z,11.98
2023-06-19T07:08:34.124Z,8.13
2023-06-19T07:11:00.747Z,7.20
2023-06-19T07:13:28.348Z,12.02
2023-06-19T07:15:54.904Z,7.35
2023-06-19T07:18:21.436Z,6.95
2023-06-19T07:20:47.980Z,7.65
2023-06-19T07:23:15.383Z,7.47
2023-06-19T07:25:41.920Z,6.03
2023-06-19T07:28:08.546Z,11.07
2023-06-19T07:30:35.104Z,11.45
2023-06-19T07:33:01.710Z,6.35
2023-06-19T07:35:28.380Z,9.30
2023-06-19T07:37:54.998Z,8.20
2023-06-19T07:40:22.139Z,12.65
2023-06-19T07:42:48.827Z,7.45
2023-06-19T07:45:15.462Z,15.57
2023-06-19T07:47:42.097Z,19.42
2023-06-19T07:50:08.886Z,13.48
2023-06-19T07:52:35.482Z,18.08
2023-06-19T07:55:02.139Z,7.82
2023-06-19T07:57:28.691Z,10.13
2023-06-19T07:59:55.793Z,10.88
2023-06-19T08:02:22.473Z,14.40
2023-06-19T08:04:49.263Z,23.25
2023-06-19T08:07:15.872Z,9.73
2023-06-19T08:09:42.444Z,26.55
2023-06-19T08:12:09.067Z,15.88
2023-06-19T08:14:35.625Z,20.05
2023-06-19T08:17:02.314Z,15.00
2023-06-19T08:19:28.936Z,15.50
2023-06-19T08:21:55.464Z,12.35
2023-06-19T08:24:22.093Z,17.42
2023-06-19T08:26:52.162Z,15.35
2023-06-19T08:29:19.721Z,15.40
2023-06-19T08:31:46.362Z,19.52
2023-06-19T08:34:12.961Z,14.55
2023-06-19T08:36:39.518Z,20.67
2023-06-19T08:39:07.357Z,18.23
2023-06-19T08:41:34.208Z,25.05
2023-06-19T08:44:00.801Z,14.50
2023-06-19T08:46:27.379Z,12.88
2023-06-19T08:48:56.145Z,18.52
2023-06-19T08:51:22.994Z,15.32
2023-06-19T08:54:06.032Z,13.82
2023-06-19T08:56:36.504Z,20.95
2023-06-19T08:59:13.073Z,14.90
2023-06-19T09:01:39.910Z,11.82
2023-06-19T09:04:13.664Z,14.48
2023-06-19T09:06:49.351Z,12.98
2023-06-19T09:09:16.784Z,11.52
2023-06-19T09:11:46.086Z,13.23
2023-06-19T09:14:12.783Z,14.95
2023-06-19T09:16:40.457Z,10.27
2023-06-19T09:19:07.492Z,12.52
2023-06-19T09:21:36.389Z,11.32
2023-06-19T09:24:07.113Z,11.50
2023-06-19T09:26:33.767Z,12.13
2023-06-19T09:29:14.765Z,14.95
2023-06-19T09:31:42.676Z,7.70
2023-06-19T09:34:09.583Z,8.63
2023-06-19T09:36:36.311Z,6.88
2023-06-19T09:39:05.833Z,7.05
2023-06-19T09:41:33.108Z,8.82
2023-06-19T09:44:01.107Z,8.02
2023-06-19T09:46:31.254Z,7.25
2023-06-19T09:48:59.787Z,5.38
2023-06-19T09:51:32.097Z,5.60
2023-06-19T09:54:04.118Z,8.38
2023-06-19T09:56:30.775Z,8.30
2023-06-19T09:58:59.344Z,5.90
2023-06-19T10:01:27.414Z,3.75
2023-06-19T10:04:02.479Z,6.78
2023-06-19T10:06:31.154Z,5.03
2023-06-19T10:09:07.591Z,4.13
2023-06-19T10:11:47.615Z,6.22
2023-06-19T10:14:14.765Z,4.82
2023-06-19T10:16:41.858Z,5.18
2023-06-19T10:19:15.511Z,7.00
2023-06-19T10:21:50.247Z,4.85
2023-06-19T10:24:19.968Z,3.83
2023-06-19T10:27:00.629Z,4.10
2023-06-19T10:29:28.617Z,6.90
2023-06-19T10:31:55.556Z,4.55
2023-06-19T10:34:22.132Z,7.80
2023-06-19T10:36:48.709Z,5.22
2023-06-19T10:39:15.236Z,4.35
2023-06-19T10:41:42.066Z,6.63
2023-06-19T10:44:14.592Z,16.05
2023-06-19T10:46:41.764Z,4.22
2023-06-19T10:49:08.938Z,5.45
2023-06-19T10:51:36.313Z,5.80
2023-06-19T10:54:03.042Z,6.10
2023-06-19T10:56:29.578Z,6.00
2023-06-19T10:59:02.809Z,7.60
2023-06-19T11:01:37.109Z,4.88
2023-06-19T11:04:08.013Z,6.30
2023-06-19T11:06:37.857Z,9.43
2023-06-19T11:09:06.359Z,4.90
2023-06-19T11:11:36.967Z,6.03
2023-06-19T11:14:03.551Z,6.18
2023-06-19T11:16:30.209Z,4.88
2023-06-19T11:18:57.469Z,8.38
2023-06-19T11:21:39.588Z,6.78
2023-06-19T11:24:13.246Z,5.50
2023-06-19T11:26:45.398Z,7.35
2023-06-19T11:29:26.042Z,6.82
2023-06-19T11:32:05.929Z,5.88
2023-06-19T11:34:34.048Z,5.22
2023-06-19T11:37:00.681Z,6.82
2023-06-19T11:39:27.299Z,5.25
2023-06-19T11:41:55.058Z,7.80
2023-06-19T11:44:21.775Z,6.72
2023-06-19T11:46:48.482Z,7.00
2023-06-19T11:49:18.050Z,5.63
2023-06-19T11:51:44.617Z,5.60
2023-06-19T11:54:12.443Z,5.30
2023-06-19T11:56:39.456Z,7.82
2023-06-19T11:59:06.072Z,6.03
2023-06-19T12:01:33.436Z,6.65
2023-06-19T12:04:00.564Z,5.25
2023-06-19T12:06:27.392Z,6.40
2023-06-19T12:08:53.928Z,6.30
2023-06-19T12:11:20.776Z,8.23
2023-06-19T12:13:47.383Z,5.43
2023-06-19T12:16:14.505Z,5.97
2023-06-19T12:18:41.252Z,5.95
2023-06-19T12:21:15.056Z,5.10
2023-06-19T12:23:47.910Z,5.90
2023-06-19T12:26:14.517Z,4.75
2023-06-19T12:28:41.125Z,5.63
2023-06-19T12:31:07.782Z,5.95
2023-06-19T12:33:35.197Z,6.22
2023-06-19T12:36:01.859Z,5.45
2023-06-19T12:38:28.428Z,8.15
2023-06-19T12:40:54.981Z,5.75
2023-06-19T12:43:21.556Z,6.60
2023-06-19T12:45:48.178Z,4.78
2023-06-19T12:48:14.859Z,6.72
2023-06-19T12:50:41.391Z,5.07
2023-06-19T12:53:08.015Z,7.78
2023-06-19T12:55:37.167Z,6.05
2023-06-19T12:58:07.442Z,7.50
2023-06-19T13:00:33.976Z,5.90
2023-06-19T13:03:00.908Z,5.05
2023-06-19T13:05:27.812Z,5.43
2023-06-19T13:07:54.367Z,4.65
2023-06-19T13:10:21.060Z,5.13
2023-06-19T13:12:47.766Z,2.83
2023-06-19T13:15:14.288Z,4.70
2023-06-19T13:17:41.752Z,5.18
2023-06-19T13:20:08.883Z,6.88
2023-06-19T13:22:35.522Z,4.30
2023-06-19T13:25:02.449Z,8.30
2023-06-19T13:27:29.233Z,5.20
2023-06-19T13:29:56.062Z,5.93
2023-06-19T13:32:22.630Z,6.72
2023-06-19T13:34:49.202Z,4.95
2023-06-19T13:37:15.835Z,4.55
2023-06-19T13:39:42.404Z,6.40
2023-06-19T13:42:09.116Z,4.95
2023-06-19T13:44:35.705Z,4.00
2023-06-19T13:47:02.307Z,3.85
2023-06-19T13:49:28.928Z,3.90
2023-06-19T13:51:55.924Z,4.95
2023-06-19T13:54:22.460Z,4.55
2023-06-19T13:56:49.436Z,7.55
2023-06-19T13:59:16.161Z,5.65
2023-06-19T14:01:42.874Z,4.30
2023-06-19T14:04:12.329Z,8.05
2023-06-19T14:06:39.328Z,8.60
2023-06-19T14:09:06.460Z,4.30
2023-06-19T14:11:33.944Z,5.28
2023-06-19T14:14:00.616Z,4.25
2023-06-19T14:16:27.255Z,5.78
2023-06-19T14:18:53.821Z,5.05
2023-06-19T14:21:20.369Z,5.03
2023-06-19T14:23:46.979Z,3.67
2023-06-19T14:26:13.615Z,7.68
2023-06-19T14:28:43.035Z,5.22
2023-06-19T14:31:09.665Z,3.80
2023-06-19T14:33:38.206Z,3.75
2023-06-19T14:36:05.068Z,6.82
2023-06-19T14:38:34.728Z,5.45
2023-06-19T14:41:02.599Z,7.57
2023-06-19T14:43:31.726Z,6.22
2023-06-19T14:46:00.017Z,7.95
2023-06-19T14:48:26.642Z,6.15
2023-06-19T14:50:53.500Z,2.65
2023-06-19T14:53:20.153Z,3.78
2023-06-19T14:55:48.129Z,5.55
2023-06-19T14:58:14.906Z,4.43
2023-06-19T15:00:41.940Z,4.07
2023-06-19T15:03:08.806Z,4.80
2023-06-19T15:05:35.547Z,3.90
2023-06-19T15:08:02.392Z,5.68
2023-06-19T15:10:28.998Z,6.43
2023-06-19T15:12:55.636Z,3.78
2023-06-19T15:15:22.239Z,4.70
2023-06-19T15:17:49.057Z,6.43
2023-06-19T15:20:17.807Z,6.53
2023-06-19T15:22:44.618Z,6.53
2023-06-19T15:25:11.155Z,3.70
2023-06-19T15:27:39.146Z,6.57
2023-06-19T15:30:06.314Z,5.18
2023-06-19T15:32:32.942Z,4.20
2023-06-19T15:34:59.563Z,4.53
2023-06-19T15:37:26.190Z,6.32
2023-06-19T15:39:55.920Z,2.85
2023-06-19T15:42:22.818Z,2.47
2023-06-19T15:44:49.399Z,4.47
2023-06-19T15:47:16.157Z,5.50
2023-06-19T15:49:42.698Z,3.17
2023-06-19T15:52:09.345Z,4.55
2023-06-19T15:54:36.024Z,5.85
2023-06-19T15:57:03.520Z,4.28
2023-06-19T15:59:30.095Z,6.95
2023-06-19T16:01:56.749Z,5.78
2023-06-19T16:04:23.460Z,4.80
2023-06-19T16:06:50.013Z,6.63
2023-06-19T16:09:16.586Z,5.03
2023-06-19T16:11:43.172Z,5.47
2023-06-19T16:14:09.684Z,6.40
2023-06-19T16:16:37.071Z,4.47
2023-06-19T16:19:03.687Z,7.22
2023-06-19T16:21:30.267Z,5.63
2023-06-19T16:23:56.940Z,4.90
2023-06-19T16:26:23.477Z,4.25
2023-06-19T16:28:52.042Z,6.03
2023-06-19T16:31:19.090Z,5.25
2023-06-19T16:33:45.725Z,4.47
2023-06-19T16:36:12.309Z,7.30
2023-06-19T16:38:38.870Z,6.22
2023-06-19T16:41:05.455Z,8.43
2023-06-19T16:43:31.973Z,7.57
2023-06-19T16:45:58.553Z,6.30
2023-06-19T16:48:25.089Z,4.07
2023-06-19T16:50:51.692Z,8.63
2023-06-19T16:53:18.239Z,4.70
2023-06-19T16:55:44.800Z,5.25
2023-06-19T16:58:11.397Z,6.22
2023-06-19T17:00:37.916Z,4.88
2023-06-19T17:03:04.509Z,7.13
2023-06-19T17:05:31.146Z,6.10
2023-06-19T17:07:57.721Z,7.10
2023-06-19T17:49:23.834Z,2.72
2023-06-19T17:51:50.448Z,2.40
2023-06-19T17:54:18.114Z,2.72
2023-06-19T17:56:45.773Z,4.43
2023-06-19T17:59:13.607Z,4.80
2023-06-19T18:01:40.161Z,2.78
2023-06-19T18:04:06.916Z,2.00
2023-06-19T18:06:33.541Z,2.35
2023-06-19T18:09:00.116Z,5.63
2023-06-19T18:11:26.655Z,6.10
2023-06-19T18:13:53.225Z,6.38
2023-06-19T18:16:19.820Z,8.13
2023-06-19T18:18:46.419Z,7.70
2023-06-19T18:21:14.536Z,8.82
2023-06-19T18:23:41.123Z,8.90
2023-06-19T18:26:07.784Z,9.18
2023-06-19T18:28:34.305Z,6.15
2023-06-19T18:31:00.845Z,9.68
2023-06-19T18:33:27.385Z,8.48
2023-06-19T18:35:53.941Z,11.88
2023-06-19T18:38:20.505Z,7.38
2023-06-19T18:40:48.985Z,8.90
2023-06-19T18:43:15.662Z,6.10
2023-06-19T18:45:42.312Z,7.75
2023-06-19T18:48:08.974Z,5.22
2023-06-19T18:50:35.580Z,5.97
2023-06-19T18:53:02.155Z,5.45
2023-06-19T18:55:28.684Z,3.35
2023-06-19T18:57:55.201Z,4.78
2023-06-19T19:00:21.958Z,4.82
2023-06-19T19:02:50.152Z,6.47
2023-06-19T19:05:16.976Z,7.93
2023-06-19T19:07:43.824Z,4.88
2023-06-19T19:10:10.910Z,6.32
2023-06-19T19:12:38.237Z,5.20
2023-06-19T19:15:05.108Z,5.47
2023-06-19T19:17:31.806Z,5.53
2023-06-19T19:19:58.466Z,6.15
2023-06-19T19:22:26.410Z,7.82
2023-06-19T19:24:52.907Z,4.97
2023-06-19T19:27:19.474Z,6.90
2023-06-19T19:29:46.111Z,6.20
2023-06-19T19:32:13.684Z,5.72
2023-06-19T19:34:40.230Z,5.07
2023-06-19T19:37:06.802Z,6.85
2023-06-19T19:39:35.589Z,6.18
2023-06-19T19:42:02.542Z,5.88
2023-06-19T19:44:29.072Z,3.78
2023-06-19T19:46:55.591Z,4.70
2023-06-19T19:49:22.217Z,5.18
2023-06-19T19:51:48.744Z,4.53
2023-06-19T19:54:15.264Z,5.47
2023-06-19T19:56:41.905Z,4.82
2023-06-19T19:59:08.477Z,5.68
2023-06-19T20:01:35.064Z,6.60
2023-06-19T20:04:02.012Z,6.95
2023-06-19T20:06:28.938Z,4.65
2023-06-19T20:08:56.084Z,5.30
2023-06-19T20:11:22.637Z,4.68
2023-06-19T20:13:49.297Z,8.68
2023-06-19T20:16:16.653Z,5.97
2023-06-19T20:18:43.226Z,6.63
2023-06-19T20:21:09.846Z,7.45
2023-06-19T20:23:36.430Z,4.75
2023-06-19T20:26:03.002Z,9.40
2023-06-19T20:28:29.536Z,4.90
2023-06-19T20:30:56.117Z,11.25
2023-06-19T20:33:22.857Z,6.60
2023-06-19T20:35:49.498Z,6.85
2023-06-19T20:38:16.215Z,4.28
2023-06-19T20:40:42.892Z,6.72
2023-06-19T20:43:10.878Z,4.82
2023-06-19T20:45:41.898Z,5.07
2023-06-19T20:48:08.777Z,5.45
2023-06-19T20:50:35.583Z,9.32
2023-06-19T20:53:02.216Z,7.50
2023-06-19T20:55:28.795Z,6.95
2023-06-19T20:57:55.320Z,5.72
2023-06-19T21:00:22.032Z,7.10
2023-06-19T21:02:48.904Z,6.50
2023-06-19T21:05:19.207Z,8.32
2023-06-19T21:07:46.502Z,4.88
2023-06-19T21:10:13.251Z,4.72
2023-06-19T21:12:51.349Z,8.45
2023-06-19T21:15:17.933Z,5.55
2023-06-19T21:17:44.547Z,6.47
2023-06-19T21:20:11.415Z,6.45
2023-06-19T21:22:38.475Z,6.68
2023-06-19T21:25:05.643Z,6.78
2023-06-19T21:27:32.282Z,7.15
2023-06-19T21:29:58.849Z,5.00
2023-06-19T21:32:25.400Z,7.00
2023-06-19T21:34:51.948Z,5.28
2023-06-19T21:37:18.574Z,4.88
2023-06-19T21:39:45.205Z,4.85
2023-06-19T21:42:11.734Z,7.40
2023-06-19T21:44:38.291Z,6.18
2023-06-19T21:47:04.937Z,5.97
2023-06-19T21:49:31.452Z,4.32
2023-06-19T21:51:58.001Z,3.55
2023-06-19T21:54:24.908Z,6.03
2023-06-19T21:56:51.431Z,3.88
2023-06-19T21:59:18.009Z,4.88
2023-06-19T22:01:44.553Z,4.82
2023-06-19T22:04:15.711Z,4.53
2023-06-19T22:06:42.865Z,5.25
2023-06-19T22:09:09.417Z,7.20
2023-06-19T22:11:35.928Z,4.93
2023-06-19T22:14:02.480Z,5.20
2023-06-19T22:16:29.148Z,4.28
2023-06-19T22:18:55.717Z,6.13
2023-06-19T22:21:22.338Z,6.72
2023-06-19T22:23:48.929Z,6.30
2023-06-19T22:26:15.719Z,6.38
2023-06-19T22:28:42.240Z,4.60
2023-06-19T22:31:08.826Z,6.60
2023-06-19T22:33:35.421Z,7.32
2023-06-19T22:36:02.013Z,4.38
2023-06-19T22:38:28.577Z,5.93
2023-06-19T22:40:55.252Z,6.13
2023-06-19T22:43:22.032Z,3.70
2023-06-19T22:45:48.686Z,4.43
2023-06-19T22:48:19.351Z,6.53
2023-06-19T22:50:47.211Z,5.22
2023-06-19T22:53:13.829Z,4.82
2023-06-19T22:55:40.371Z,5.70
2023-06-19T22:58:07.000Z,10.20
2023-06-19T23:00:35.461Z,4.78
2023-06-19T23:03:02.252Z,5.82
2023-06-19T23:05:28.903Z,4.78
2023-06-19T23:07:56.908Z,4.03
2023-06-19T23:10:23.509Z,6.53
2023-06-19T23:12:50.094Z,4.70
2023-06-19T23:15:16.830Z,5.85
2023-06-19T23:17:43.858Z,4.95
2023-06-19T23:20:13.230Z,11.18
2023-06-19T23:22:40.777Z,4.90
2023-06-19T23:25:07.812Z,6.18
2023-06-19T23:27:37.101Z,7.10
2023-06-19T23:30:04.977Z,5.88
2023-06-19T23:32:31.665Z,5.65
2023-06-19T23:35:00.323Z,4.45
2023-06-19T23:37:29.995Z,10.07
2023-06-19T23:39:56.523Z,6.88
2023-06-19T23:42:23.134Z,8.52
2023-06-19T23:44:49.759Z,5.57
2023-06-19T23:47:16.338Z,6.35
2023-06-19T23:49:44.153Z,7.25
2023-06-19T23:52:11.042Z,4.55
2023-06-19T23:54:38.254Z,7.75
2023-06-19T23:57:05.044Z,5.78
2023-06-19T23:59:31.922Z,5.40
